createdAt,value
2018-07-27T00:00:05.142Z,24.35
2018-07-27T00:02:35.640Z,24.31
2018-07-27T00:05:03.981Z,24.27
2018-07-27T00:07:32.551Z,24.21
2018-07-27T00:10:01.090Z,24.16
2018-07-27T00:12:30.539Z,24.11
2018-07-27T00:14:58.329Z,24.07
2018-07-27T00:17:27.311Z,24.02
2018-07-27T00:19:55.496Z,23.98
2018-07-27T00:22:23.189Z,23.94
2018-07-27T00:24:51.598Z,23.90
2018-07-27T00:27:19.597Z,23.87
2018-07-27T00:29:49.178Z,23.84
2018-07-27T00:32:18.209Z,23.81
2018-07-27T00:34:47.295Z,23.77
2018-07-27T00:37:18.340Z,23.73
2018-07-27T00:39:46.037Z,23.69
2018-07-27T00:42:14.432Z,23.66
2018-07-27T00:44:43.429Z,23.62
2018-07-27T00:47:13.636Z,23.59
2018-07-27T00:49:43.131Z,23.56
2018-07-27T00:52:10.833Z,23.53
2018-07-27T00:54:38.510Z,23.49
2018-07-27T00:57:06.373Z,23.46
2018-07-27T00:59:34.389Z,23.42
2018-07-27T01:02:03.366Z,23.39
2018-07-27T01:04:31.761Z,23.34
2018-07-27T01:06:59.453Z,23.31
2018-07-27T01:09:28.397Z,23.29
2018-07-27T01:11:56.380Z,23.26
2018-07-27T01:14:24.777Z,23.23
2018-07-27T01:16:52.924Z,23.20
2018-07-27T01:19:20.600Z,23.15
2018-07-27T01:21:48.275Z,23.10
2018-07-27T01:24:15.968Z,23.06
2018-07-27T01:26:46.741Z,23.02
2018-07-27T01:29:14.425Z,22.96
2018-07-27T01:31:42.127Z,22.93
2018-07-27T01:34:09.897Z,22.89
2018-07-27T01:36:37.934Z,22.87
2018-07-27T01:39:05.648Z,22.85
2018-07-27T01:41:33.334Z,22.81
2018-07-27T01:44:01.077Z,22.77
2018-07-27T01:46:29.072Z,22.74
2018-07-27T01:48:56.729Z,22.71
2018-07-27T01:51:24.397Z,22.67
2018-07-27T01:53:52.377Z,22.64
2018-07-27T01:56:20.063Z,22.62
2018-07-27T01:58:47.774Z,22.58
2018-07-27T02:01:15.497Z,22.52
2018-07-27T02:03:43.599Z,22.48
2018-07-27T02:06:11.297Z,22.43
2018-07-27T02:08:39.824Z,22.39
2018-07-27T02:11:08.413Z,22.36
2018-07-27T02:13:41.269Z,22.34
2018-07-27T02:16:10.313Z,22.30
2018-07-27T02:18:38.754Z,22.28
2018-07-27T02:21:06.433Z,22.26
2018-07-27T02:23:34.700Z,22.25
2018-07-27T02:26:02.449Z,22.22
2018-07-27T02:28:31.081Z,22.19
2018-07-27T02:30:59.943Z,22.16
2018-07-27T02:33:27.714Z,22.09
2018-07-27T02:35:55.440Z,22.03
2018-07-27T02:38:23.771Z,21.98
2018-07-27T02:40:51.873Z,21.91
2018-07-27T02:43:19.615Z,21.82
2018-07-27T02:45:47.288Z,21.75
2018-07-27T02:48:14.981Z,21.68
2018-07-27T02:50:42.970Z,21.62
2018-07-27T02:53:10.701Z,21.57
2018-07-27T02:55:38.425Z,21.55
2018-07-27T02:58:06.141Z,21.52
2018-07-27T03:00:34.148Z,21.48
2018-07-27T03:03:03.493Z,21.43
2018-07-27T03:05:31.165Z,21.37
2018-07-27T03:07:58.864Z,21.32
2018-07-27T03:10:26.814Z,21.25
2018-07-27T03:12:54.522Z,21.19
2018-07-27T03:15:22.245Z,21.14
2018-07-27T03:17:49.910Z,21.11
2018-07-27T03:20:17.881Z,21.07
2018-07-27T03:22:45.617Z,21.04
2018-07-27T03:25:14.137Z,21.02
2018-07-27T03:27:41.869Z,20.97
2018-07-27T03:30:09.837Z,20.98
2018-07-27T03:32:37.524Z,20.97
2018-07-27T03:35:05.240Z,20.96
2018-07-27T03:37:32.912Z,20.94
2018-07-27T03:40:00.890Z,20.93
2018-07-27T03:42:28.605Z,20.90
2018-07-27T03:44:56.905Z,20.87
2018-07-27T03:47:25.861Z,20.82
2018-07-27T03:49:53.568Z,20.78
2018-07-27T03:52:22.401Z,20.74
2018-07-27T03:54:51.157Z,20.70
2018-07-27T03:57:18.853Z,20.66
2018-07-27T03:59:46.546Z,20.61
2018-07-27T04:02:14.272Z,20.56
2018-07-27T04:04:42.442Z,20.52
2018-07-27T04:07:10.182Z,20.53
2018-07-27T04:09:37.913Z,20.55
2018-07-27T04:12:05.625Z,20.59
2018-07-27T04:14:33.597Z,20.62
2018-07-27T04:17:01.345Z,20.67
2018-07-27T04:19:29.545Z,20.71
2018-07-27T04:21:58.332Z,20.77
2018-07-27T04:24:26.026Z,20.83
2018-07-27T04:26:53.721Z,20.89
2018-07-27T04:29:21.708Z,20.95
2018-07-27T04:31:49.730Z,21.02
2018-07-27T04:34:17.452Z,21.09
2018-07-27T04:36:45.141Z,21.17
2018-07-27T04:39:13.460Z,21.27
2018-07-27T04:41:41.181Z,21.36
2018-07-27T04:44:09.953Z,21.46
2018-07-27T04:46:37.978Z,21.56
2018-07-27T04:49:06.402Z,21.66
2018-07-27T04:51:34.093Z,21.78
2018-07-27T04:54:01.778Z,21.88
2018-07-27T04:56:29.487Z,21.98
2018-07-27T04:58:57.594Z,22.10
2018-07-27T05:01:25.286Z,22.20
2018-07-27T05:03:52.973Z,22.30
2018-07-27T05:06:21.906Z,22.43
2018-07-27T05:08:54.475Z,22.54
2018-07-27T05:11:22.381Z,22.62
2018-07-27T05:13:50.458Z,22.72
2018-07-27T05:16:18.129Z,22.81
2018-07-27T05:18:45.805Z,22.91
2018-07-27T05:21:13.778Z,23.01
2018-07-27T05:23:41.482Z,23.12
2018-07-27T05:26:10.358Z,23.23
2018-07-27T05:28:38.451Z,23.33
2018-07-27T05:31:06.117Z,23.45
2018-07-27T05:33:33.809Z,23.56
2018-07-27T05:36:01.810Z,23.68
2018-07-27T05:38:29.500Z,23.81
2018-07-27T05:40:57.201Z,23.92
2018-07-27T05:43:25.318Z,24.06
2018-07-27T05:45:53.012Z,24.18
2018-07-27T05:48:20.708Z,24.31
2018-07-27T05:50:48.725Z,24.45
2018-07-27T05:53:16.494Z,24.61
2018-07-27T05:55:44.235Z,24.78
2018-07-27T05:58:12.200Z,24.93
2018-07-27T06:00:39.876Z,25.07
2018-07-27T06:03:07.576Z,25.23
2018-07-27T06:05:35.652Z,25.36
2018-07-27T06:08:03.328Z,25.48
2018-07-27T06:10:31.015Z,25.60
2018-07-27T06:12:58.989Z,25.73
2018-07-27T06:15:26.650Z,25.86
2018-07-27T06:17:54.361Z,25.99
2018-07-27T06:20:22.369Z,26.12
2018-07-27T06:22:50.077Z,26.26
2018-07-27T06:25:18.368Z,26.42
2018-07-27T06:27:46.357Z,26.59
2018-07-27T06:30:14.108Z,26.77
2018-07-27T06:32:41.791Z,26.93
2018-07-27T06:35:09.818Z,27.10
2018-07-27T06:37:37.559Z,27.22
2018-07-27T06:40:05.272Z,27.35
2018-07-27T06:42:33.492Z,27.47
2018-07-27T06:45:01.184Z,27.54
2018-07-27T06:47:29.605Z,27.66
2018-07-27T06:49:57.571Z,27.81
2018-07-27T06:52:25.336Z,27.95
2018-07-27T06:54:53.198Z,28.09
2018-07-27T06:57:21.163Z,28.22
2018-07-27T06:59:48.845Z,28.37
2018-07-27T07:02:16.548Z,28.54
2018-07-27T07:04:44.543Z,28.68
2018-07-27T07:07:12.287Z,28.83
2018-07-27T07:09:41.018Z,28.95
2018-07-27T07:12:08.992Z,29.09
2018-07-27T07:14:36.738Z,29.21
2018-07-27T07:17:05.042Z,29.32
2018-07-27T07:19:33.052Z,29.46
2018-07-27T07:22:00.775Z,29.59
2018-07-27T07:24:28.452Z,29.72
2018-07-27T07:26:56.465Z,29.82
2018-07-27T07:29:24.732Z,29.91
2018-07-27T07:31:52.428Z,30.03
2018-07-27T07:34:20.428Z,30.16
2018-07-27T07:36:48.137Z,30.28
2018-07-27T07:39:15.862Z,30.40
2018-07-27T07:41:43.920Z,30.49
2018-07-27T07:44:11.637Z,30.59
2018-07-27T07:46:40.537Z,30.71
2018-07-27T07:49:09.308Z,30.79
2018-07-27T07:51:38.826Z,30.86
2018-07-27T07:54:06.540Z,30.95
2018-07-27T07:56:34.995Z,31.05
2018-07-27T07:59:03.258Z,31.12
2018-07-27T08:01:31.576Z,31.16
2018-07-27T08:03:59.525Z,31.21
2018-07-27T08:06:28.013Z,31.29
2018-07-27T08:08:57.752Z,31.37
2018-07-27T08:11:27.133Z,31.43
2018-07-27T08:13:54.828Z,31.50
2018-07-27T08:16:23.823Z,31.58
2018-07-27T08:18:51.788Z,31.68
2018-07-27T08:21:20.836Z,31.74
2018-07-27T08:23:49.717Z,31.79
2018-07-27T08:26:17.732Z,31.86
2018-07-27T08:28:45.790Z,31.98
2018-07-27T08:31:13.492Z,32.02
2018-07-27T08:33:41.480Z,32.07
2018-07-27T08:36:09.181Z,32.12
2018-07-27T08:38:37.945Z,32.16
2018-07-27T08:41:06.000Z,32.25
2018-07-27T08:43:33.665Z,32.37
2018-07-27T08:46:01.356Z,32.46
2018-07-27T08:48:29.422Z,32.54
2018-07-27T08:50:58.389Z,32.61
2018-07-27T08:53:27.017Z,32.66
2018-07-27T08:55:54.976Z,32.72
2018-07-27T08:58:22.640Z,32.80
2018-07-27T09:00:56.748Z,32.92
2018-07-27T09:03:24.767Z,32.99
2018-07-27T09:05:52.563Z,33.07
2018-07-27T09:08:20.970Z,33.13
2018-07-27T09:10:49.497Z,33.21
2018-07-27T09:13:18.493Z,33.38
2018-07-27T09:15:47.495Z,33.55
2018-07-27T09:18:16.344Z,33.68
2018-07-27T09:20:44.097Z,33.74
2018-07-27T09:23:11.934Z,33.83
2018-07-27T09:25:39.688Z,33.90
2018-07-27T09:28:08.308Z,33.94
2018-07-27T09:30:36.699Z,34.02
2018-07-27T09:33:06.076Z,34.14
2018-07-27T09:35:35.201Z,34.28
2018-07-27T09:38:03.471Z,34.38
2018-07-27T09:40:31.352Z,34.43
2018-07-27T09:43:00.867Z,34.52
2018-07-27T09:45:30.349Z,34.57
2018-07-27T09:47:58.021Z,34.67
2018-07-27T09:50:25.697Z,34.88
2018-07-27T09:52:54.501Z,35.11
2018-07-27T09:55:25.816Z,35.39
2018-07-27T09:57:53.611Z,35.73
2018-07-27T10:00:26.745Z,36.08
2018-07-27T10:02:55.536Z,36.45
2018-07-27T10:05:23.278Z,36.81
2018-07-27T10:07:52.994Z,37.16
2018-07-27T10:10:20.680Z,37.48
2018-07-27T10:12:48.684Z,37.84
2018-07-27T10:15:19.215Z,38.23
2018-07-27T10:17:47.723Z,38.61
2018-07-27T10:20:16.017Z,38.92
2018-07-27T10:22:43.975Z,39.17
2018-07-27T10:25:12.476Z,39.46
2018-07-27T10:27:40.984Z,39.74
2018-07-27T10:30:09.081Z,39.88
2018-07-27T10:32:38.565Z,40.00
2018-07-27T10:35:08.425Z,40.19
2018-07-27T10:37:37.160Z,40.36
2018-07-27T10:40:04.909Z,40.55
2018-07-27T10:42:33.368Z,40.85
2018-07-27T10:45:03.356Z,41.07
2018-07-27T10:47:31.064Z,41.27
2018-07-27T10:49:58.737Z,41.57
2018-07-27T10:52:27.385Z,41.80
2018-07-27T10:54:55.092Z,41.98
2018-07-27T10:57:23.366Z,42.13
2018-07-27T10:59:51.583Z,42.32
2018-07-27T11:02:20.282Z,42.59
2018-07-27T11:04:48.209Z,42.72
2018-07-27T11:07:17.341Z,42.87
2018-07-27T11:09:45.675Z,42.96
2018-07-27T11:12:18.281Z,43.05
2018-07-27T11:14:46.340Z,43.10
2018-07-27T11:17:15.004Z,43.13
2018-07-27T11:19:42.772Z,43.19
2018-07-27T11:22:11.541Z,43.29
2018-07-27T11:24:40.796Z,43.39
2018-07-27T11:27:08.650Z,43.46
2018-07-27T11:29:36.640Z,43.55
2018-07-27T11:32:04.341Z,43.63
2018-07-27T11:34:33.666Z,43.83
2018-07-27T11:37:01.661Z,44.03
2018-07-27T11:39:30.545Z,44.26
2018-07-27T11:41:58.250Z,44.51
2018-07-27T11:44:26.200Z,44.67
2018-07-27T11:46:56.817Z,44.71
2018-07-27T11:49:24.544Z,44.77
2018-07-27T11:51:53.676Z,44.84
2018-07-27T11:54:22.539Z,44.97
2018-07-27T11:56:51.812Z,45.06
2018-07-27T11:59:20.424Z,45.12
2018-07-27T12:01:48.111Z,45.14
2018-07-27T12:04:15.903Z,45.12
2018-07-27T12:06:44.491Z,45.20
2018-07-27T12:09:12.841Z,45.31
2018-07-27T12:11:41.227Z,45.47
2018-07-27T12:14:09.440Z,45.46
2018-07-27T12:16:37.029Z,45.43
2018-07-27T12:19:04.742Z,45.58
2018-07-27T12:21:32.827Z,45.68
2018-07-27T12:24:00.838Z,45.72
2018-07-27T12:26:28.558Z,45.88
2018-07-27T12:28:56.581Z,46.01
2018-07-27T12:31:24.345Z,46.02
2018-07-27T12:33:52.402Z,45.96
2018-07-27T12:36:20.398Z,45.97
2018-07-27T12:38:48.212Z,46.12
2018-07-27T12:41:15.909Z,46.12
2018-07-27T12:43:43.872Z,46.29
2018-07-27T12:46:11.706Z,46.63
2018-07-27T12:48:40.004Z,46.82
2018-07-27T12:51:07.965Z,46.77
2018-07-27T12:53:35.644Z,46.81
2018-07-27T12:56:03.331Z,46.88
2018-07-27T12:58:31.282Z,47.00
2018-07-27T13:01:00.044Z,46.99
2018-07-27T13:03:28.941Z,47.05
2018-07-27T13:06:00.442Z,47.16
2018-07-27T13:08:28.378Z,47.33
2018-07-27T13:10:56.145Z,47.32
2018-07-27T13:13:24.536Z,47.16
2018-07-27T13:15:52.228Z,47.03
2018-07-27T13:18:19.942Z,47.05
2018-07-27T13:20:50.668Z,47.18
2018-07-27T13:23:18.782Z,47.40
2018-07-27T13:25:46.713Z,47.38
2018-07-27T13:28:14.861Z,47.21
2018-07-27T13:30:42.558Z,47.21
2018-07-27T13:33:12.722Z,47.32
2018-07-27T13:38:09.195Z,47.28
2018-07-27T13:40:37.981Z,47.28
2018-07-27T13:43:06.142Z,47.24
2018-07-27T13:45:33.881Z,47.42
2018-07-27T13:48:02.576Z,47.62
2018-07-27T13:50:30.742Z,47.85
2018-07-27T13:52:58.484Z,47.95
2018-07-27T13:55:30.547Z,47.94
2018-07-27T13:57:58.635Z,47.92
2018-07-27T14:00:27.278Z,47.82
2018-07-27T14:02:58.402Z,47.89
2018-07-27T14:05:27.839Z,47.94
2018-07-27T14:07:56.249Z,48.01
2018-07-27T14:10:25.705Z,48.01
2018-07-27T14:12:56.781Z,48.05
2018-07-27T14:15:32.205Z,48.04
2018-07-27T14:17:59.961Z,48.10
2018-07-27T14:20:31.578Z,47.95
2018-07-27T14:23:02.336Z,47.88
2018-07-27T14:25:30.072Z,47.94
2018-07-27T14:27:58.223Z,48.05
2018-07-27T14:30:26.010Z,48.01
2018-07-27T14:32:53.725Z,48.06
2018-07-27T14:35:21.784Z,48.15
2018-07-27T14:37:49.490Z,48.09
2018-07-27T14:40:17.180Z,48.04
2018-07-27T14:42:47.096Z,48.09
2018-07-27T14:45:14.846Z,48.20
2018-07-27T14:47:42.855Z,48.24
2018-07-27T14:50:11.929Z,48.24
2018-07-27T14:52:39.736Z,48.23
2018-07-27T14:55:07.435Z,48.24
2018-07-27T14:57:35.652Z,48.17
2018-07-27T15:00:06.568Z,48.08
2018-07-27T15:02:34.260Z,48.14
2018-07-27T15:05:02.465Z,48.12
2018-07-27T15:07:32.085Z,48.00
2018-07-27T15:10:00.477Z,48.01
2018-07-27T15:12:29.616Z,48.19
2018-07-27T15:14:57.309Z,48.39
2018-07-27T15:17:26.509Z,48.61
2018-07-27T15:19:54.691Z,48.62
2018-07-27T15:22:22.383Z,48.67
2018-07-27T15:24:50.282Z,48.80
2018-07-27T15:27:19.200Z,48.92
2018-07-27T15:29:47.492Z,49.00
2018-07-27T15:32:16.436Z,48.84
2018-07-27T15:34:46.727Z,48.52
2018-07-27T15:37:15.568Z,48.33
2018-07-27T15:39:44.482Z,48.27
2018-07-27T15:42:12.213Z,48.34
2018-07-27T15:44:40.989Z,48.35
2018-07-27T15:47:10.320Z,48.06
2018-07-27T15:49:38.536Z,47.83
2018-07-27T15:52:07.408Z,47.73
2018-07-27T15:54:36.155Z,47.73
2018-07-27T15:57:04.345Z,47.51
2018-07-27T15:59:33.598Z,47.30
2018-07-27T16:02:01.708Z,47.03
2018-07-27T16:04:29.405Z,46.68
2018-07-27T16:07:01.450Z,46.49
2018-07-27T16:09:30.613Z,46.31
2018-07-27T16:11:59.271Z,46.25
2018-07-27T16:14:29.427Z,46.20
2018-07-27T16:16:58.361Z,46.20
2018-07-27T16:19:28.522Z,46.06
2018-07-27T16:21:57.531Z,45.79
2018-07-27T16:24:26.494Z,45.48
2018-07-27T16:26:54.237Z,45.23
2018-07-27T16:29:22.005Z,44.97
2018-07-27T16:31:50.029Z,44.82
2018-07-27T16:34:18.590Z,44.56
2018-07-27T16:36:48.948Z,44.13
2018-07-27T16:39:18.632Z,43.60
2018-07-27T16:41:46.661Z,42.57
2018-07-27T16:44:15.188Z,41.36
2018-07-27T16:46:43.672Z,40.20
2018-07-27T16:49:11.370Z,39.25
2018-07-27T16:51:39.109Z,38.53
2018-07-27T16:54:07.168Z,37.97
2018-07-27T16:56:34.887Z,37.49
2018-07-27T16:59:02.589Z,37.07
2018-07-27T17:01:30.560Z,36.72
2018-07-27T17:03:59.002Z,36.41
2018-07-27T17:06:27.677Z,36.14
2018-07-27T17:08:56.749Z,35.93
2018-07-27T17:11:24.670Z,35.74
2018-07-27T17:13:53.063Z,35.59
2018-07-27T17:16:22.333Z,35.43
2018-07-27T17:18:50.905Z,35.29
2018-07-27T17:21:18.725Z,35.15
2018-07-27T17:23:47.901Z,35.02
2018-07-27T17:26:16.237Z,34.89
2018-07-27T17:28:47.479Z,34.78
2018-07-27T17:31:15.672Z,34.69
2018-07-27T17:33:43.346Z,34.60
2018-07-27T17:36:11.727Z,34.51
2018-07-27T17:38:39.833Z,34.43
2018-07-27T17:41:08.176Z,34.36
2018-07-27T17:43:36.653Z,34.30
2018-07-27T17:46:04.718Z,34.23
2018-07-27T17:48:33.589Z,34.16
2018-07-27T17:51:02.485Z,34.08
2018-07-27T17:53:30.564Z,34.01
2018-07-27T17:56:00.239Z,33.95
2018-07-27T17:58:28.661Z,33.88
2018-07-27T18:00:56.797Z,33.81
2018-07-27T18:03:30.699Z,33.72
2018-07-27T18:05:58.410Z,33.67
2018-07-27T18:08:26.518Z,33.59
2018-07-27T18:10:54.218Z,33.50
2018-07-27T18:13:21.957Z,33.42
2018-07-27T18:15:50.131Z,33.36
2018-07-27T18:18:19.096Z,33.30
2018-07-27T18:20:46.916Z,33.23
2018-07-27T18:23:16.388Z,33.16
2018-07-27T18:25:44.110Z,33.11
2018-07-27T18:28:12.516Z,33.05
2018-07-27T18:30:40.641Z,32.99
2018-07-27T18:33:08.556Z,32.93
2018-07-27T18:35:38.499Z,32.86
2018-07-27T18:38:07.639Z,32.80
2018-07-27T18:40:39.379Z,32.72
2018-07-27T18:43:08.482Z,32.65
2018-07-27T18:45:39.888Z,32.60
2018-07-27T18:48:08.595Z,32.52
2018-07-27T18:50:36.263Z,32.47
2018-07-27T18:53:04.241Z,32.41
2018-07-27T18:55:31.941Z,32.35
2018-07-27T18:57:59.663Z,32.29
2018-07-27T19:00:28.478Z,32.22
2018-07-27T19:02:57.668Z,32.16
2018-07-27T19:05:25.402Z,32.07
2018-07-27T19:07:54.419Z,31.99
2018-07-27T19:10:22.972Z,31.90
2018-07-27T19:12:50.717Z,31.82
2018-07-27T19:15:19.397Z,31.73
2018-07-27T19:17:47.210Z,31.65
2018-07-27T19:20:14.931Z,31.56
2018-07-27T19:22:43.045Z,31.46
2018-07-27T19:25:11.291Z,31.36
2018-07-27T19:27:39.641Z,31.21
2018-07-27T19:30:08.702Z,31.03
2018-07-27T19:32:37.596Z,30.85
2018-07-27T19:35:06.982Z,30.67
2018-07-27T19:37:34.956Z,30.52
2018-07-27T19:40:02.655Z,30.41
2018-07-27T19:42:32.934Z,30.28
2018-07-27T19:45:02.098Z,30.14
2018-07-27T19:47:29.821Z,30.01
2018-07-27T19:49:57.521Z,29.89
2018-07-27T19:52:26.466Z,29.77
2018-07-27T19:54:54.322Z,29.65
2018-07-27T19:57:22.799Z,29.57
2018-07-27T19:59:50.884Z,29.48
2018-07-27T20:02:19.214Z,29.40
2018-07-27T20:04:48.071Z,29.30
2018-07-27T20:07:17.035Z,29.20
2018-07-27T20:09:44.716Z,29.09
2018-07-27T20:12:12.385Z,28.97
2018-07-27T20:14:40.357Z,28.89
2018-07-27T20:17:08.713Z,28.80
2018-07-27T20:19:38.524Z,28.71
2018-07-27T20:22:06.629Z,28.64
2018-07-27T20:24:39.467Z,28.53
2018-07-27T20:27:07.223Z,28.42
2018-07-27T20:29:34.966Z,28.33
2018-07-27T20:32:02.709Z,28.22
2018-07-27T20:34:31.305Z,28.14
2018-07-27T20:37:09.526Z,28.04
2018-07-27T20:39:37.220Z,27.98
2018-07-27T20:42:05.250Z,27.92
2018-07-27T20:44:32.968Z,27.88
2018-07-27T20:47:01.269Z,27.81
2018-07-27T20:49:29.213Z,27.76
2018-07-27T20:52:01.217Z,27.70
2018-07-27T20:54:28.937Z,27.68
2018-07-27T20:56:57.274Z,27.63
2018-07-27T20:59:25.004Z,27.59
2018-07-27T21:01:53.345Z,27.54
2018-07-27T21:04:21.307Z,27.49
2018-07-27T21:06:49.020Z,27.43
2018-07-27T21:09:17.416Z,27.35
2018-07-27T21:11:47.021Z,27.31
2018-07-27T21:14:14.704Z,27.26
2018-07-27T21:16:42.364Z,27.22
2018-07-27T21:19:10.833Z,27.18
2018-07-27T21:21:38.523Z,27.17
2018-07-27T21:24:06.248Z,27.16
2018-07-27T21:26:35.643Z,27.13
2018-07-27T21:29:03.366Z,27.12
2018-07-27T21:31:31.092Z,27.08
2018-07-27T21:33:59.076Z,27.05
2018-07-27T21:36:27.771Z,27.02
2018-07-27T21:38:55.520Z,27.00
2018-07-27T21:41:23.552Z,26.99
2018-07-27T21:43:58.557Z,26.99
2018-07-27T21:46:26.534Z,27.00
2018-07-27T21:48:56.042Z,27.01
2018-07-27T21:54:01.391Z,27.02
2018-07-27T21:56:29.948Z,26.98
2018-07-27T21:59:00.848Z,26.91
2018-07-27T22:01:30.443Z,26.82
2018-07-27T22:03:58.124Z,26.75
2018-07-27T22:06:25.845Z,26.67
2018-07-27T22:08:55.325Z,26.60
2018-07-27T22:11:24.285Z,26.54
2018-07-27T22:13:53.493Z,26.48
2018-07-27T22:16:22.485Z,26.43
2018-07-27T22:18:51.729Z,26.39
2018-07-27T22:21:21.865Z,26.35
2018-07-27T22:23:54.602Z,26.32
2018-07-27T22:26:23.108Z,26.29
2018-07-27T22:28:51.420Z,26.25
2018-07-27T22:31:20.259Z,26.19
2018-07-27T22:33:48.633Z,26.15
2018-07-27T22:36:17.902Z,26.09
2018-07-27T22:38:47.398Z,26.04
2018-07-27T22:41:16.607Z,26.00
2018-07-27T22:43:46.625Z,25.95
2018-07-27T22:46:14.732Z,25.92
2018-07-27T22:48:43.270Z,25.89
2018-07-27T22:51:11.755Z,25.83
2018-07-27T22:53:40.360Z,25.80
2018-07-27T22:56:12.755Z,25.75
2018-07-27T22:58:41.394Z,25.72
2018-07-27T23:01:09.421Z,25.69
2018-07-27T23:03:37.270Z,25.66
2018-07-27T23:06:06.888Z,25.63
2018-07-27T23:08:37.277Z,25.58
2018-07-27T23:11:12.589Z,25.55
2018-07-27T23:13:41.726Z,25.50
2018-07-27T23:16:11.800Z,25.46
2018-07-27T23:18:42.779Z,25.44
2018-07-27T23:21:13.553Z,25.46
2018-07-27T23:23:42.179Z,25.47
2018-07-27T23:26:10.580Z,25.53
2018-07-27T23:28:42.122Z,25.58
2018-07-27T23:31:12.485Z,25.60
2018-07-27T23:33:43.076Z,25.60
2018-07-27T23:36:11.758Z,25.65
2018-07-27T23:38:40.672Z,25.70
2018-07-27T23:41:08.610Z,25.71
2018-07-27T23:43:36.589Z,25.69
2018-07-27T23:46:05.384Z,25.64
2018-07-27T23:48:36.436Z,25.58
2018-07-27T23:51:05.508Z,25.51
2018-07-27T23:53:33.688Z,25.45
2018-07-27T23:56:03.314Z,25.40
2018-07-27T23:58:33.556Z,25.32
